createdAt,value
2023-12-20T00:00:39.533Z,66.09
2023-12-20T00:03:07.224Z,66.34
2023-12-20T00:05:35.937Z,66.27
2023-12-20T00:08:03.606Z,65.85
2023-12-20T00:10:31.221Z,65.69
2023-12-20T00:13:00.156Z,65.54
2023-12-20T00:15:27.799Z,65.32
2023-12-20T00:17:55.408Z,65.39
2023-12-20T00:20:23.092Z,65.21
2023-12-20T00:22:50.673Z,64.99
2023-12-20T00:25:18.914Z,65.13
2023-12-20T00:27:46.903Z,65.18
2023-12-20T00:30:16.138Z,64.97
2023-12-20T00:32:47.341Z,64.88
2023-12-20T00:35:15.153Z,64.80
2023-12-20T00:37:42.874Z,64.74
2023-12-20T00:40:11.532Z,64.56
2023-12-20T00:42:39.337Z,64.83
2023-12-20T00:45:07.926Z,64.59
2023-12-20T00:47:36.843Z,64.31
2023-12-20T00:50:04.856Z,64.20
2023-12-20T00:52:32.500Z,64.04
2023-12-20T00:55:00.190Z,64.14
2023-12-20T00:57:27.915Z,64.24
2023-12-20T00:59:55.512Z,64.47
2023-12-20T01:02:23.091Z,64.41
2023-12-20T01:04:52.060Z,64.37
2023-12-20T01:07:19.843Z,64.25
2023-12-20T01:09:47.634Z,64.35
2023-12-20T01:12:15.222Z,64.14
2023-12-20T01:14:43.384Z,64.08
2023-12-20T01:17:10.983Z,63.79
2023-12-20T01:19:38.660Z,64.26
2023-12-20T01:22:07.768Z,64.41
2023-12-20T01:24:35.321Z,64.89
2023-12-20T01:27:03.323Z,64.74
2023-12-20T01:29:30.919Z,64.35
2023-12-20T01:31:58.492Z,64.47
2023-12-20T01:34:26.227Z,64.24
2023-12-20T01:36:53.804Z,64.42
2023-12-20T01:39:28.068Z,64.92
2023-12-20T01:41:57.604Z,65.26
2023-12-20T01:44:25.677Z,65.25
2023-12-20T01:46:53.517Z,65.71
2023-12-20T01:49:21.787Z,66.18
2023-12-20T01:51:50.142Z,66.31
2023-12-20T01:54:18.427Z,66.40
2023-12-20T01:56:47.708Z,66.46
2023-12-20T01:59:15.529Z,66.70
2023-12-20T02:01:43.293Z,66.43
2023-12-20T02:04:11.130Z,66.67
2023-12-20T02:06:42.146Z,66.82
2023-12-20T02:09:10.254Z,66.66
2023-12-20T02:11:38.206Z,66.81
2023-12-20T02:14:07.131Z,67.08
2023-12-20T02:16:34.706Z,67.14
2023-12-20T02:19:02.339Z,67.10
2023-12-20T02:21:35.985Z,67.15
2023-12-20T02:24:03.528Z,67.35
2023-12-20T02:26:31.433Z,67.75
2023-12-20T02:28:59.092Z,67.55
2023-12-20T02:31:26.693Z,67.54
2023-12-20T02:33:54.335Z,67.47
2023-12-20T02:36:21.912Z,67.69
2023-12-20T02:38:51.824Z,68.42
2023-12-20T02:41:19.426Z,68.69
2023-12-20T02:43:47.502Z,68.72
2023-12-20T02:46:18.993Z,69.33
2023-12-20T02:48:48.245Z,70.01
2023-12-20T02:51:15.918Z,70.17
2023-12-20T02:53:43.454Z,70.43
2023-12-20T02:56:12.528Z,71.04
2023-12-20T02:58:40.092Z,71.46
2023-12-20T03:01:07.818Z,71.92
2023-12-20T03:03:35.706Z,72.42
2023-12-20T03:06:03.334Z,73.26
2023-12-20T03:08:32.117Z,73.33
2023-12-20T03:11:01.190Z,73.52
2023-12-20T03:13:30.142Z,73.91
2023-12-20T03:15:57.748Z,74.27
2023-12-20T03:18:25.283Z,74.90
2023-12-20T03:20:53.712Z,75.84
2023-12-20T03:23:21.294Z,75.69
2023-12-20T03:25:48.890Z,75.66
2023-12-20T03:28:16.827Z,76.22
2023-12-20T03:30:45.989Z,76.02
2023-12-20T03:33:13.558Z,76.61
2023-12-20T03:35:41.093Z,76.88
2023-12-20T03:38:08.716Z,76.55
2023-12-20T03:40:36.249Z,76.64
2023-12-20T03:43:03.838Z,77.24
2023-12-20T03:45:31.448Z,76.96
2023-12-20T03:48:00.483Z,76.96
2023-12-20T03:50:28.906Z,81.31
2023-12-20T03:52:56.510Z,79.62
2023-12-20T03:55:24.206Z,72.19
2023-12-20T03:57:51.886Z,67.87
2023-12-20T04:00:19.891Z,64.44
2023-12-20T04:02:47.592Z,62.75
2023-12-20T04:05:16.678Z,62.93
2023-12-20T04:07:45.180Z,61.77
2023-12-20T04:10:13.092Z,60.65
2023-12-20T04:12:41.378Z,59.34
2023-12-20T04:15:11.441Z,61.27
2023-12-20T04:17:39.148Z,61.78
2023-12-20T04:20:08.132Z,62.84
2023-12-20T04:22:37.243Z,61.90
2023-12-20T04:25:05.100Z,59.94
2023-12-20T04:27:32.695Z,59.93
2023-12-20T04:30:00.279Z,60.89
2023-12-20T04:32:27.849Z,63.75
2023-12-20T04:34:55.493Z,65.45
2023-12-20T04:37:23.191Z,66.34
2023-12-20T04:39:52.206Z,65.05
2023-12-20T04:42:19.764Z,65.66
2023-12-20T04:44:47.302Z,62.13
2023-12-20T04:47:14.838Z,59.10
2023-12-20T04:49:42.414Z,60.41
2023-12-20T04:52:10.080Z,62.95
2023-12-20T04:54:37.901Z,63.59
2023-12-20T04:57:06.873Z,60.24
2023-12-20T04:59:34.464Z,60.99
2023-12-20T05:02:02.058Z,63.34
2023-12-20T05:04:29.731Z,66.40
2023-12-20T05:06:57.382Z,63.38
2023-12-20T05:09:24.957Z,60.84
2023-12-20T05:11:52.502Z,64.01
2023-12-20T05:14:21.394Z,67.62
2023-12-20T05:16:48.927Z,69.44
2023-12-20T05:19:16.482Z,71.20
2023-12-20T05:21:44.051Z,72.90
2023-12-20T05:24:11.625Z,73.57
2023-12-20T05:26:39.155Z,74.41
2023-12-20T05:29:06.688Z,75.40
2023-12-20T05:31:35.628Z,76.55
2023-12-20T05:34:03.417Z,76.67
2023-12-20T05:36:31.049Z,76.97
2023-12-20T05:38:58.639Z,77.02
2023-12-20T05:41:26.200Z,77.10
2023-12-20T05:43:53.787Z,77.69
2023-12-20T05:46:22.289Z,77.77
2023-12-20T05:48:52.644Z,77.85
2023-12-20T05:51:20.525Z,78.05
2023-12-20T05:53:48.120Z,78.84
2023-12-20T05:56:15.659Z,78.63
2023-12-20T05:58:43.327Z,79.04
2023-12-20T06:01:11.231Z,79.65
2023-12-20T06:03:38.908Z,79.40
2023-12-20T06:06:15.845Z,79.39
2023-12-20T06:08:45.443Z,79.46
2023-12-20T06:11:14.552Z,79.71
2023-12-20T06:13:42.135Z,80.20
2023-12-20T06:16:09.843Z,80.42
2023-12-20T06:18:38.720Z,79.90
2023-12-20T06:21:09.029Z,80.36
2023-12-20T06:23:36.667Z,80.48
2023-12-20T06:26:04.391Z,80.52
2023-12-20T06:28:32.081Z,80.88
2023-12-20T06:31:00.144Z,80.98
2023-12-20T06:33:27.797Z,81.24
2023-12-20T06:35:55.346Z,81.95
2023-12-20T06:38:24.260Z,82.03
2023-12-20T06:40:51.797Z,82.18
2023-12-20T06:43:32.006Z,81.94
2023-12-20T06:46:06.867Z,81.95
2023-12-20T06:48:34.484Z,81.75
2023-12-20T06:51:03.087Z,82.06
2023-12-20T06:53:31.971Z,82.03
2023-12-20T06:55:59.548Z,82.29
2023-12-20T06:58:27.259Z,81.81
2023-12-20T07:00:55.068Z,82.20
2023-12-20T07:03:22.826Z,82.72
2023-12-20T07:05:50.425Z,82.74
2023-12-20T07:08:18.007Z,82.36
2023-12-20T07:10:46.918Z,82.93
2023-12-20T07:13:15.150Z,82.61
2023-12-20T07:15:44.840Z,83.09
2023-12-20T07:18:12.647Z,82.69
2023-12-20T07:20:40.354Z,82.86
2023-12-20T07:23:07.943Z,83.46
2023-12-20T07:25:35.748Z,82.97
2023-12-20T07:28:05.059Z,83.10
2023-12-20T07:30:32.678Z,83.23
2023-12-20T07:33:00.374Z,83.23
2023-12-20T07:35:28.119Z,83.05
2023-12-20T07:37:55.736Z,83.31
2023-12-20T07:40:24.930Z,83.27
2023-12-20T07:42:52.625Z,83.06
2023-12-20T07:45:21.516Z,83.21
2023-12-20T07:47:50.133Z,83.32
2023-12-20T07:50:18.161Z,83.35
2023-12-20T07:52:45.841Z,83.08
2023-12-20T07:55:13.531Z,83.12
2023-12-20T07:57:41.198Z,83.84
2023-12-20T08:00:09.775Z,83.48
2023-12-20T08:02:39.217Z,83.40
2023-12-20T08:05:07.067Z,83.53
2023-12-20T08:07:34.798Z,83.38
2023-12-20T08:10:02.505Z,83.26
2023-12-20T08:12:30.114Z,83.18
2023-12-20T08:14:58.167Z,83.27
2023-12-20T08:17:25.844Z,82.99
2023-12-20T08:19:54.804Z,83.29
2023-12-20T08:22:22.536Z,83.23
2023-12-20T08:24:50.151Z,82.91
2023-12-20T08:27:17.680Z,83.62
2023-12-20T08:29:45.996Z,83.54
2023-12-20T08:32:13.718Z,83.49
2023-12-20T08:34:41.343Z,83.51
2023-12-20T08:37:10.318Z,83.83
2023-12-20T08:39:37.894Z,83.98
2023-12-20T08:42:06.050Z,84.11
2023-12-20T08:44:33.604Z,83.79
2023-12-20T08:47:01.155Z,83.01
2023-12-20T08:49:29.225Z,83.16
2023-12-20T08:51:56.942Z,83.24
2023-12-20T08:54:25.846Z,82.99
2023-12-20T08:56:53.366Z,82.83
2023-12-20T08:59:20.966Z,82.63
2023-12-20T09:01:49.564Z,83.15
2023-12-20T09:04:17.345Z,83.19
2023-12-20T09:06:45.201Z,83.87
2023-12-20T09:09:14.778Z,83.07
2023-12-20T09:11:44.166Z,82.64
2023-12-20T09:14:11.721Z,82.79
2023-12-20T09:16:39.324Z,82.57
2023-12-20T09:19:07.319Z,82.63
2023-12-20T09:21:34.920Z,82.40
2023-12-20T09:24:02.524Z,82.02
2023-12-20T09:26:30.069Z,82.26
2023-12-20T09:28:58.977Z,82.22
2023-12-20T09:31:26.739Z,82.13
2023-12-20T09:33:54.525Z,82.11
2023-12-20T09:36:22.277Z,81.71
2023-12-20T09:38:49.845Z,81.84
2023-12-20T09:41:17.617Z,81.81
2023-12-20T09:43:45.260Z,81.98
2023-12-20T09:46:18.786Z,82.07
2023-12-20T09:48:46.990Z,81.50
2023-12-20T09:51:15.009Z,81.81
2023-12-20T09:53:44.484Z,81.50
2023-12-20T09:56:12.456Z,81.57
2023-12-20T09:58:40.365Z,82.15
2023-12-20T10:01:08.980Z,82.38
2023-12-20T10:03:41.478Z,82.25
2023-12-20T10:06:09.484Z,82.08
2023-12-20T10:08:37.128Z,81.92
2023-12-20T10:11:05.320Z,81.82
2023-12-20T10:13:33.021Z,81.79
2023-12-20T10:16:01.879Z,81.67
2023-12-20T10:18:38.107Z,81.65
2023-12-20T10:21:10.980Z,81.72
2023-12-20T10:23:40.173Z,81.36
2023-12-20T10:26:07.821Z,80.95
2023-12-20T10:28:36.541Z,80.80
2023-12-20T10:31:04.324Z,82.89
2023-12-20T10:33:34.304Z,82.39
2023-12-20T10:36:01.977Z,81.22
2023-12-20T10:38:31.511Z,81.20
2023-12-20T10:41:00.654Z,81.58
2023-12-20T10:43:31.622Z,81.03
2023-12-20T10:45:59.635Z,81.13
2023-12-20T10:48:30.734Z,81.18
2023-12-20T10:50:59.774Z,81.35
2023-12-20T10:53:27.805Z,80.73
2023-12-20T10:56:02.259Z,81.81
2023-12-20T10:58:31.925Z,81.49
2023-12-20T11:01:03.938Z,81.14
2023-12-20T11:03:34.905Z,81.08
2023-12-20T11:06:07.563Z,80.72
2023-12-20T11:08:40.998Z,79.93
2023-12-20T11:11:18.398Z,79.51
2023-12-20T11:13:56.116Z,78.93
2023-12-20T11:16:24.631Z,79.29
2023-12-20T11:18:53.986Z,79.20
2023-12-20T11:21:22.610Z,79.14
2023-12-20T11:23:50.457Z,79.21
2023-12-20T11:26:28.556Z,79.40
2023-12-20T11:28:55.980Z,79.43
2023-12-20T11:31:23.646Z,79.32
2023-12-20T11:33:52.727Z,78.12
2023-12-20T11:36:22.214Z,78.38
2023-12-20T11:38:58.832Z,78.51
2023-12-20T11:41:28.387Z,78.04
2023-12-20T11:43:56.368Z,76.80
2023-12-20T11:46:24.619Z,76.27
2023-12-20T11:48:52.956Z,75.55
2023-12-20T11:51:20.768Z,74.21
2023-12-20T11:53:53.831Z,74.07
2023-12-20T11:56:21.623Z,73.66
2023-12-20T11:58:51.607Z,72.33
2023-12-20T12:01:22.122Z,73.01
2023-12-20T12:03:49.934Z,71.68
2023-12-20T12:06:17.799Z,72.37
2023-12-20T12:08:45.381Z,71.46
2023-12-20T12:11:13.093Z,71.58
2023-12-20T12:13:40.862Z,70.47
2023-12-20T12:16:10.613Z,69.20
2023-12-20T12:18:38.250Z,69.20
2023-12-20T12:21:10.622Z,68.17
2023-12-20T12:23:43.287Z,68.27
2023-12-20T12:26:11.135Z,67.72
2023-12-20T12:28:42.375Z,67.38
2023-12-20T12:31:15.656Z,66.56
2023-12-20T12:33:44.808Z,68.11
2023-12-20T12:36:13.412Z,67.52
2023-12-20T12:38:40.965Z,67.10
2023-12-20T12:41:08.559Z,66.10
2023-12-20T12:43:37.119Z,64.37
2023-12-20T12:46:05.032Z,64.39
2023-12-20T12:48:34.995Z,63.74
2023-12-20T12:51:02.585Z,62.92
2023-12-20T12:53:30.136Z,62.72
2023-12-20T12:55:57.908Z,63.36
2023-12-20T12:58:26.471Z,63.42
2023-12-20T13:00:54.973Z,63.47
2023-12-20T13:03:22.594Z,62.90
2023-12-20T13:05:51.594Z,61.87
2023-12-20T13:08:19.186Z,61.32
2023-12-20T13:10:46.728Z,60.74
2023-12-20T13:13:14.286Z,60.31
2023-12-20T13:15:42.188Z,60.78
2023-12-20T13:18:09.956Z,61.47
2023-12-20T13:20:37.548Z,62.04
2023-12-20T13:23:06.631Z,62.10
2023-12-20T13:25:34.566Z,61.45
2023-12-20T13:28:02.196Z,60.25
2023-12-20T13:30:29.827Z,60.84
2023-12-20T13:32:57.537Z,59.52
2023-12-20T13:35:25.207Z,58.20
2023-12-20T13:37:52.933Z,57.54
2023-12-20T13:40:22.189Z,57.00
2023-12-20T13:42:49.879Z,57.01
2023-12-20T13:45:17.742Z,56.41
2023-12-20T13:47:45.623Z,54.43
2023-12-20T13:50:13.714Z,55.22
2023-12-20T13:52:41.474Z,54.76
2023-12-20T13:55:09.939Z,52.50
2023-12-20T13:57:51.774Z,52.03
2023-12-20T14:00:22.937Z,53.52
2023-12-20T14:02:50.926Z,52.54
2023-12-20T14:05:19.706Z,51.63
2023-12-20T14:07:47.935Z,51.59
2023-12-20T14:10:16.108Z,51.08
2023-12-20T14:12:45.989Z,51.02
2023-12-20T14:15:14.274Z,49.33
2023-12-20T14:17:43.208Z,48.68
2023-12-20T14:20:13.562Z,47.57
2023-12-20T14:22:44.905Z,47.58
2023-12-20T14:25:13.211Z,47.98
2023-12-20T14:27:41.516Z,47.89
2023-12-20T14:30:11.665Z,47.85
2023-12-20T14:32:40.009Z,47.66
2023-12-20T14:35:09.457Z,46.08
2023-12-20T14:37:39.939Z,45.65
2023-12-20T14:40:11.920Z,44.71
2023-12-20T14:42:39.952Z,44.92
2023-12-20T14:45:08.290Z,45.11
2023-12-20T14:47:37.837Z,45.98
2023-12-20T14:50:06.111Z,48.71
2023-12-20T14:52:35.015Z,49.51
2023-12-20T14:55:03.682Z,51.47
2023-12-20T14:57:31.429Z,53.39
2023-12-20T14:59:59.206Z,53.54
2023-12-20T15:02:26.846Z,54.03
2023-12-20T15:04:55.711Z,55.67
2023-12-20T15:07:23.340Z,55.72
2023-12-20T15:09:50.971Z,56.30
2023-12-20T15:12:18.521Z,56.35
2023-12-20T15:14:46.129Z,56.74
2023-12-20T15:17:13.730Z,57.09
2023-12-20T15:19:41.620Z,57.11
2023-12-20T15:22:10.737Z,57.62
2023-12-20T15:24:39.562Z,57.88
2023-12-20T15:27:07.701Z,58.23
2023-12-20T15:29:35.902Z,59.71
2023-12-20T15:32:04.755Z,59.43
2023-12-20T15:34:32.760Z,59.74
2023-12-20T15:37:00.599Z,60.87
2023-12-20T15:39:29.552Z,61.48
2023-12-20T15:41:57.128Z,61.20
2023-12-20T15:44:24.650Z,60.83
2023-12-20T15:46:53.616Z,61.27
2023-12-20T15:49:21.297Z,60.54
2023-12-20T15:51:48.910Z,60.61
2023-12-20T15:54:16.639Z,61.66
2023-12-20T15:56:47.398Z,62.14
2023-12-20T15:59:14.988Z,62.16
2023-12-20T16:01:42.623Z,62.20
2023-12-20T16:04:21.467Z,61.85
2023-12-20T16:06:49.307Z,62.52
2023-12-20T16:09:16.975Z,62.18
2023-12-20T16:11:45.901Z,62.31
2023-12-20T16:14:18.454Z,62.71
2023-12-20T16:16:46.389Z,63.13
2023-12-20T16:19:14.130Z,63.81
2023-12-20T16:21:41.848Z,67.51
2023-12-20T16:24:09.884Z,65.29
2023-12-20T16:26:37.585Z,61.26
2023-12-20T16:29:06.504Z,61.51
2023-12-20T16:31:34.284Z,62.48
2023-12-20T16:34:05.802Z,62.17
2023-12-20T16:36:50.810Z,61.94
2023-12-20T16:39:20.352Z,62.54
2023-12-20T16:41:49.462Z,63.12
2023-12-20T16:44:18.479Z,62.92
2023-12-20T16:46:46.146Z,62.56
2023-12-20T16:49:13.988Z,62.50
2023-12-20T16:51:41.605Z,62.19
2023-12-20T16:54:09.186Z,62.62
2023-12-20T16:56:36.828Z,64.72
2023-12-20T16:59:05.284Z,65.43
2023-12-20T17:01:34.284Z,57.88
2023-12-20T17:04:02.468Z,57.71
2023-12-20T17:06:30.375Z,60.27
2023-12-20T17:08:57.915Z,60.89
2023-12-20T17:11:25.436Z,61.53
2023-12-20T17:13:53.531Z,61.70
2023-12-20T17:16:21.470Z,63.56
2023-12-20T17:18:50.830Z,62.10
2023-12-20T17:21:18.938Z,62.35
2023-12-20T17:23:47.084Z,62.68
2023-12-20T17:26:15.066Z,62.83
2023-12-20T17:28:42.850Z,63.15
2023-12-20T17:31:10.716Z,63.40
2023-12-20T17:33:38.437Z,63.57
2023-12-20T17:36:08.421Z,63.71
2023-12-20T17:38:38.739Z,63.93
2023-12-20T17:41:06.490Z,64.33
2023-12-20T17:43:34.063Z,65.19
2023-12-20T17:46:01.744Z,65.59
2023-12-20T17:48:29.439Z,65.24
2023-12-20T17:50:57.030Z,65.18
2023-12-20T17:53:25.908Z,65.22
2023-12-20T17:55:53.522Z,65.12
2023-12-20T17:58:21.900Z,65.41
2023-12-20T18:00:50.023Z,64.29
2023-12-20T18:03:17.643Z,70.38
2023-12-20T18:05:45.250Z,60.02
2023-12-20T18:08:12.874Z,60.05
2023-12-20T18:10:42.442Z,64.19
2023-12-20T18:13:10.370Z,62.12
2023-12-20T18:15:38.049Z,63.49
2023-12-20T18:18:05.997Z,62.33
2023-12-20T18:20:33.731Z,62.56
2023-12-20T18:23:01.418Z,63.22
2023-12-20T18:25:30.462Z,63.56
2023-12-20T18:27:59.472Z,64.05
2023-12-20T18:30:27.062Z,64.33
2023-12-20T18:32:54.700Z,64.27
2023-12-20T18:35:22.335Z,65.06
2023-12-20T18:37:50.127Z,72.75
2023-12-20T18:40:17.748Z,63.76
2023-12-20T18:42:45.420Z,60.33
2023-12-20T18:45:14.420Z,61.00
2023-12-20T18:47:42.378Z,61.40
2023-12-20T18:50:10.478Z,61.07
2023-12-20T18:52:38.126Z,62.11
2023-12-20T18:55:06.692Z,62.08
2023-12-20T18:57:34.226Z,62.34
2023-12-20T19:00:04.422Z,61.82
2023-12-20T19:02:35.684Z,61.66
2023-12-20T19:05:03.871Z,61.21
2023-12-20T19:07:31.631Z,61.56
2023-12-20T19:09:59.270Z,61.52
2023-12-20T19:12:26.868Z,61.50
2023-12-20T19:14:54.480Z,68.99
2023-12-20T19:17:22.327Z,60.60
2023-12-20T19:19:51.328Z,60.28
2023-12-20T19:22:19.052Z,59.60
2023-12-20T19:24:46.746Z,60.41
2023-12-20T19:27:14.376Z,61.24
2023-12-20T19:29:41.953Z,61.10
2023-12-20T19:32:09.512Z,61.03
2023-12-20T19:34:37.182Z,60.76
2023-12-20T19:37:06.274Z,61.03
2023-12-20T19:39:33.832Z,60.94
2023-12-20T19:42:01.384Z,61.48
2023-12-20T19:44:28.947Z,61.66
2023-12-20T19:46:56.459Z,61.57
2023-12-20T19:49:24.032Z,62.73
2023-12-20T19:51:51.672Z,60.33
2023-12-20T19:54:20.583Z,63.28
2023-12-20T19:56:48.174Z,59.22
2023-12-20T19:59:15.802Z,59.92
2023-12-20T20:01:44.470Z,60.25
2023-12-20T20:04:13.227Z,60.74
2023-12-20T20:06:42.061Z,61.30
2023-12-20T20:09:09.592Z,61.04
2023-12-20T20:11:38.468Z,70.01
2023-12-20T20:14:05.036Z,62.38
2023-12-20T20:16:32.703Z,60.07
2023-12-20T20:19:00.379Z,56.19
2023-12-20T20:21:28.162Z,51.64
2023-12-20T20:23:55.807Z,53.95
2023-12-20T20:26:23.432Z,55.78
2023-12-20T20:28:52.325Z,59.13
2023-12-20T20:31:19.896Z,58.83
2023-12-20T20:33:47.494Z,55.80
2023-12-20T20:36:15.120Z,56.31
2023-12-20T20:38:42.668Z,57.00
2023-12-20T20:41:10.224Z,57.99
2023-12-20T20:43:37.968Z,58.58
2023-12-20T20:46:07.219Z,59.12
2023-12-20T20:48:43.900Z,59.31
2023-12-20T20:51:15.662Z,59.49
2023-12-20T20:53:43.228Z,60.04
2023-12-20T20:56:10.927Z,60.05
2023-12-20T20:58:38.645Z,60.09
2023-12-20T21:01:08.324Z,60.77
2023-12-20T21:03:36.419Z,60.50
2023-12-20T21:06:04.315Z,61.10
2023-12-20T21:08:32.490Z,61.10
2023-12-20T21:11:00.635Z,61.23
2023-12-20T21:13:29.800Z,61.18
2023-12-20T21:15:57.680Z,61.02
2023-12-20T21:18:28.551Z,61.23
2023-12-20T21:20:56.439Z,61.35
2023-12-20T21:23:24.103Z,61.49
2023-12-20T21:25:52.113Z,61.30
2023-12-20T21:28:21.220Z,61.95
2023-12-20T21:30:50.363Z,61.77
2023-12-20T21:33:18.211Z,61.61
2023-12-20T21:35:47.208Z,61.76
2023-12-20T21:38:14.781Z,61.58
2023-12-20T21:40:42.396Z,61.87
2023-12-20T21:43:10.081Z,61.98
2023-12-20T21:45:38.452Z,62.27
2023-12-20T21:48:06.739Z,62.28
2023-12-20T21:50:34.485Z,62.30
2023-12-20T21:53:03.484Z,62.54
2023-12-20T21:55:32.571Z,62.14
2023-12-20T21:58:00.309Z,62.34
2023-12-20T22:00:27.969Z,62.13
2023-12-20T22:02:55.564Z,62.32
2023-12-20T22:05:23.390Z,62.43
2023-12-20T22:07:52.475Z,62.74
2023-12-20T22:10:21.459Z,63.10
2023-12-20T22:12:49.097Z,62.82
2023-12-20T22:15:16.656Z,62.41
2023-12-20T22:17:44.433Z,62.64
2023-12-20T22:20:13.029Z,62.63
2023-12-20T22:22:41.338Z,62.62
2023-12-20T22:25:09.379Z,63.19
2023-12-20T22:27:38.377Z,63.53
2023-12-20T22:30:07.191Z,63.36
2023-12-20T22:32:34.844Z,63.18
2023-12-20T22:35:02.486Z,63.45
2023-12-20T22:37:30.125Z,63.44
2023-12-20T22:39:57.790Z,63.09
2023-12-20T22:42:25.467Z,63.04
2023-12-20T22:44:55.932Z,62.70
2023-12-20T22:47:24.639Z,62.76
2023-12-20T22:49:53.797Z,62.72
2023-12-20T22:52:21.968Z,62.61
2023-12-20T22:54:49.969Z,62.55
2023-12-20T22:57:17.559Z,62.59
2023-12-20T22:59:45.328Z,62.36
2023-12-20T23:02:14.805Z,62.87
2023-12-20T23:04:43.368Z,62.83
2023-12-20T23:07:11.576Z,62.90
2023-12-20T23:09:40.128Z,62.23
2023-12-20T23:12:08.317Z,62.47
2023-12-20T23:14:35.842Z,63.10
2023-12-20T23:17:04.045Z,62.83
2023-12-20T23:19:34.473Z,63.45
2023-12-20T23:22:02.368Z,62.83
2023-12-20T23:24:29.965Z,62.83
2023-12-20T23:26:57.501Z,62.86
2023-12-20T23:29:25.070Z,63.81
2023-12-20T23:31:52.739Z,63.85
2023-12-20T23:34:20.424Z,63.37
2023-12-20T23:36:49.352Z,62.95
2023-12-20T23:39:17.396Z,63.04
2023-12-20T23:41:45.130Z,63.43
2023-12-20T23:44:12.749Z,63.77
2023-12-20T23:46:39.493Z,63.97
2023-12-20T23:49:07.288Z,64.30
2023-12-20T23:51:34.911Z,64.84
2023-12-20T23:54:03.967Z,64.42
2023-12-20T23:56:38.166Z,64.03
2023-12-20T23:59:06.818Z,64.17
